Time;durP1;ratioP1;P1;durP2;ratioP2;P2;SDS_P1;SDS_P2;PMS_P1;PMS_P2;Temp;Humidity;BMP_temperature;BMP_pressure;BME280_temperature;BME280_humidity;BME280_pressure;Samples;Min_cycle;Max_cycle;Signal;HPM_P1;HPM_P2
2022/10/29 00:02:04;;;;;;;28.40;10.85;;;;;;;12.25;90.72;99815.44;8458546;27;20770;-80
2022/10/29 00:06:10;;;;;;;19.60;10.73;;;;;;;12.24;91.16;99808.41;8501096;27;20041;-81
2022/10/29 00:10:11;;;;;;;19.92;10.23;;;;;;;12.27;91.18;99807.78;8514812;27;20087;-81
2022/10/29 00:14:12;;;;;;;24.25;11.05;;;;;;;12.22;91.30;99815.22;8501597;27;20660;-80
2022/10/29 00:18:31;;;;;;;24.45;10.93;;;;;;;12.18;91.22;99820.44;8512080;27;20081;-80
2022/10/29 00:22:32;;;;;;;27.17;11.55;;;;;;;12.16;91.68;99811.78;8509846;27;20090;-81
2022/10/29 00:26:32;;;;;;;24.98;10.45;;;;;;;12.17;91.66;99818.81;8502209;27;20054;-80
2022/10/29 00:30:34;;;;;;;23.13;11.02;;;;;;;12.18;91.49;99809.59;8500828;27;20039;-81
2022/10/29 00:34:36;;;;;;;20.20;10.57;;;;;;;12.17;91.84;99813.41;8481377;27;20047;-80
2022/10/29 00:38:38;;;;;;;19.38;9.77;;;;;;;12.16;91.69;99806.38;8470108;27;20043;-80
2022/10/29 00:43:27;;;;;;;24.15;10.23;;;;;;;12.21;91.64;99803.56;8509577;27;20041;-80
2022/10/29 00:47:32;;;;;;;20.73;9.18;;;;;;;12.23;91.45;99812.22;8357082;28;20054;-80
2022/10/29 00:51:33;;;;;;;20.98;10.65;;;;;;;12.26;91.62;99802.69;8312740;28;20121;-79
2022/10/29 00:55:34;;;;;;;24.95;10.93;;;;;;;12.25;91.70;99799.19;8322355;28;20064;-80
2022/10/29 00:59:35;;;;;;;23.42;10.32;;;;;;;12.24;91.68;99808.41;8303369;28;20140;-79
2022/10/29 01:03:37;;;;;;;25.33;10.88;;;;;;;12.24;91.80;99808.41;8313813;28;20058;-80
2022/10/29 01:07:38;;;;;;;20.30;10.20;;;;;;;12.24;91.98;99808.41;8296349;28;20072;-80
2022/10/29 01:11:42;;;;;;;21.13;10.52;;;;;;;12.25;91.97;99799.19;8315922;28;20057;-80
2022/10/29 01:16:05;;;;;;;25.92;11.65;;;;;;;12.27;92.05;99812.41;8310265;28;20056;-80
2022/10/29 01:20:09;;;;;;;18.55;10.15;;;;;;;12.31;91.82;99796.38;8328410;28;20064;-80
2022/10/29 01:24:55;;;;;;;22.08;10.25;;;;;;;12.35;91.64;99808.19;8483729;27;20050;-81
2022/10/29 01:29:12;;;;;;;22.43;11.03;;;;;;;12.37;91.54;99795.97;8495459;27;20498;-80
2022/10/29 01:33:54;;;;;;;17.80;9.48;;;;;;;12.41;91.67;99796.16;8499741;27;20049;-80
2022/10/29 01:38:21;;;;;;;25.75;10.60;;;;;;;12.44;91.44;99800.94;8407809;28;20074;-80
2022/10/29 01:42:24;;;;;;;21.73;9.82;;;;;;;12.49;91.27;99808.97;8416997;28;20059;-79
2022/10/29 01:46:48;;;;;;;21.65;9.82;;;;;;;12.56;91.22;99803.94;8411863;28;20055;-80
2022/10/29 01:50:54;;;;;;;16.50;8.88;;;;;;;12.59;91.26;99814.16;8388594;28;20036;-80
2022/10/29 01:55:18;;;;;;;18.35;9.02;;;;;;;12.62;91.19;99808.13;8399401;28;20069;-80
2022/10/29 01:59:19;;;;;;;20.35;8.80;;;;;;;12.61;91.15;99817.38;8412069;28;20036;-80
2022/10/29 02:03:27;;;;;;;20.70;8.82;;;;;;;12.62;91.23;99808.13;8401923;28;20696;-80
2022/10/29 02:08:00;;;;;;;18.83;7.45;;;;;;;12.66;91.21;99809.13;8388964;28;20052;-81
2022/10/29 02:12:25;;;;;;;17.05;8.27;;;;;;;12.71;91.37;99795.47;8422143;28;20050;-80
2022/10/29 02:16:26;;;;;;;13.13;8.07;;;;;;;12.76;91.09;99781.78;8508835;27;20047;-80
2022/10/29 02:20:27;;;;;;;20.55;8.45;;;;;;;12.76;91.09;99781.78;8459429;27;20054;-80
2022/10/29 02:24:46;;;;;;;15.07;7.68;;;;;;;12.76;91.21;99770.94;8496393;27;20082;-79
2022/10/29 02:28:47;;;;;;;18.13;8.10;;;;;;;12.78;91.21;99773.38;8508746;27;20046;-80
2022/10/29 02:32:48;;;;;;;24.63;8.02;;;;;;;12.79;91.22;99781.19;8504221;27;20058;-79
2022/10/29 02:36:49;;;;;;;16.60;7.50;;;;;;;12.81;91.21;99767.31;8507176;27;20043;-79
2022/10/29 02:40:49;;;;;;;16.75;7.60;;;;;;;12.85;91.08;99763.69;8503293;27;20047;-80
2022/10/29 02:45:09;;;;;;;20.77;7.78;;;;;;;12.83;91.40;99770.53;8487867;27;20115;-79
2022/10/29 02:49:10;;;;;;;23.60;8.85;;;;;;;12.85;91.45;99763.69;8506090;27;20054;-80
2022/10/29 02:53:11;;;;;;;14.95;8.52;;;;;;;12.85;91.42;99769.09;8505580;27;20471;-78
2022/10/29 02:57:12;;;;;;;18.67;8.98;;;;;;;12.85;91.11;99769.09;8474515;27;20150;-79
2022/10/29 03:01:13;;;;;;;19.58;9.18;;;;;;;12.83;90.99;99765.91;8466749;27;20098;-80
2022/10/29 03:05:14;;;;;;;36.22;10.20;;;;;;;12.82;91.13;99767.03;8516083;27;20077;-80
2022/10/29 03:09:33;;;;;;;;;;;;;;;12.81;90.90;99768.13;8493790;27;20042;-79
2022/10/29 03:13:34;;;;;;;20.95;9.68;;;;;;;12.77;90.77;99771.75;8512036;27;19918;-79
2022/10/29 03:17:35;;;;;;;21.65;9.40;;;;;;;12.70;91.18;99777.59;8510927;27;20040;-80
2022/10/29 03:21:36;;;;;;;24.05;9.25;;;;;;;12.60;91.28;99788.66;8515155;27;20503;-80
2022/10/29 03:25:37;;;;;;;18.58;9.18;;;;;;;12.53;91.52;99777.47;8512657;27;20149;-80
2022/10/29 03:29:38;;;;;;;17.60;8.65;;;;;;;12.45;91.95;99776.25;8495506;27;20103;-80
2022/10/29 03:33:39;;;;;;;21.13;8.15;;;;;;;12.37;92.08;99787.03;8497753;27;20138;-79
2022/10/29 03:37:40;;;;;;;19.55;8.85;;;;;;;12.31;92.17;99790.94;8497941;27;20035;-80
2022/10/29 03:41:41;;;;;;;23.55;8.77;;;;;;;12.22;92.55;99788.94;8480307;27;20510;-80
2022/10/29 03:45:42;;;;;;;16.08;7.82;;;;;;;12.31;92.51;99790.94;8503549;27;20059;-79
2022/10/29 03:49:43;;;;;;;14.05;7.68;;;;;;;12.40;92.13;99794.53;8519161;27;20453;-79
2022/10/29 03:53:44;;;;;;;19.38;7.30;;;;;;;12.47;91.92;99794.94;8517434;27;20445;-79
2022/10/29 03:57:48;;;;;;;26.88;7.78;;;;;;;12.55;91.68;99803.13;8511054;27;20442;-79
2022/10/29 04:01:49;;;;;;;16.67;6.60;;;;;;;12.74;91.08;99800.28;8511576;27;20039;-79
2022/10/29 04:05:50;;;;;;;15.65;7.00;;;;;;;12.80;90.87;99804.47;8504945;27;20051;-79
2022/10/29 04:10:09;;;;;;;21.63;6.35;;;;;;;12.81;90.91;99811.50;8517268;27;20540;-80
2022/10/29 04:14:10;;;;;;;16.83;6.90;;;;;;;12.79;91.20;99813.72;8501813;27;20099;-79
2022/10/29 04:18:11;;;;;;;17.95;6.22;;;;;;;12.77;91.22;99821.34;8503929;27;20563;-80
2022/10/29 04:22:12;;;;;;;17.60;6.32;;;;;;;12.69;91.53;99819.34;8518338;27;20058;-80
2022/10/29 04:26:31;;;;;;;17.40;6.65;;;;;;;12.52;91.94;99819.19;8502229;27;20518;-80
2022/10/29 04:30:32;;;;;;;21.65;6.40;;;;;;;12.39;92.62;99820.00;8502346;27;20039;-79
2022/10/29 04:34:33;;;;;;;14.68;6.03;;;;;;;12.37;92.92;99827.66;8482089;27;20118;-80
2022/10/29 04:38:52;;;;;;;19.10;6.07;;;;;;;12.30;93.04;99838.09;8504150;27;20481;-79
2022/10/29 04:42:53;;;;;;;16.83;6.10;;;;;;;12.24;93.47;99835.47;8506459;27;20134;-80
2022/10/29 04:46:54;;;;;;;19.50;6.40;;;;;;;12.22;93.56;99837.69;8508422;27;20035;-80
2022/10/29 04:50:55;;;;;;;15.73;6.13;;;;;;;12.31;94.21;99839.69;8505315;27;20043;-79
2022/10/29 04:54:56;;;;;;;18.00;6.43;;;;;;;12.46;93.65;99842.09;8507112;27;20392;-79
2022/10/29 04:58:57;;;;;;;14.88;6.35;;;;;;;12.47;94.04;99841.00;8498798;27;20057;-79
2022/10/29 05:02:57;;;;;;;24.92;6.47;;;;;;;12.57;93.99;99838.88;8515184;27;20575;-79
2022/10/29 05:07:16;;;;;;;14.65;5.72;;;;;;;12.74;93.71;99837.44;8503958;27;20097;-79
2022/10/29 05:11:17;;;;;;;21.90;6.00;;;;;;;12.76;94.00;99844.13;8450477;27;20070;-79
2022/10/29 05:15:18;;;;;;;22.50;6.60;;;;;;;13.04;93.52;99851.09;8516097;27;20042;-79
2022/10/29 05:19:19;;;;;;;15.65;5.63;;;;;;;13.26;92.75;99854.94;8469551;27;20046;-79
2022/10/29 05:23:21;;;;;;;20.42;6.07;;;;;;;13.30;92.51;99856.75;8515523;27;20054;-79
2022/10/29 05:27:22;;;;;;;23.60;6.25;;;;;;;13.37;92.38;99850.88;8509060;27;20487;-78
2022/10/29 05:31:22;;;;;;;20.48;6.03;;;;;;;13.44;91.90;99856.66;8511986;27;20043;-80
2022/10/29 05:35:42;;;;;;;15.55;5.38;;;;;;;13.39;92.13;99854.06;8505658;27;20046;-79
2022/10/29 05:39:43;;;;;;;18.17;5.78;;;;;;;13.38;92.48;99868.75;8510109;27;20058;-78
2022/10/29 05:43:48;;;;;;;26.35;6.32;;;;;;;13.46;92.21;99865.31;8496067;27;20074;-78
2022/10/29 05:48:01;;;;;;;23.60;6.28;;;;;;;13.52;92.03;99880.34;8518879;27;20832;-78
2022/10/29 05:52:01;;;;;;;18.55;6.22;;;;;;;13.56;91.90;99875.91;8500709;27;20055;-79
2022/10/29 05:56:03;;;;;;;22.25;6.22;;;;;;;13.60;91.90;99876.88;8503278;27;20043;-79
2022/10/29 06:00:04;;;;;;;12.63;5.90;;;;;;;13.60;91.78;99882.31;8501864;27;20039;-80
2022/10/29 06:04:05;;;;;;;22.98;6.45;;;;;;;13.67;91.62;99882.69;8492984;27;20043;-78
2022/10/29 06:08:06;;;;;;;18.13;6.13;;;;;;;13.70;91.51;99887.47;8447419;27;20126;-79
2022/10/29 06:12:07;;;;;;;20.35;5.68;;;;;;;13.72;91.81;99890.69;8503148;27;20538;-78
2022/10/29 06:16:26;;;;;;;20.77;6.50;;;;;;;13.82;91.54;99882.28;8497839;27;20098;-78
2022/10/29 06:20:30;;;;;;;24.58;6.50;;;;;;;13.96;91.05;99880.28;8507913;27;20038;-78
2022/10/29 06:24:31;;;;;;;24.83;7.70;;;;;;;14.06;90.69;99883.84;8503338;27;20514;-78
2022/10/29 06:28:51;;;;;;;18.88;6.68;;;;;;;14.17;90.32;99874.31;8497479;27;20066;-79
2022/10/29 06:32:52;;;;;;;19.50;6.32;;;;;;;14.26;90.05;99888.72;8495018;27;20051;-80
2022/10/29 06:36:54;;;;;;;16.58;5.97;;;;;;;14.35;90.08;99897.72;8493842;27;20047;-79
2022/10/29 06:40:55;;;;;;;14.25;6.53;;;;;;;14.41;89.59;99896.50;8494210;27;20078;-78
2022/10/29 06:44:56;;;;;;;23.90;6.97;;;;;;;14.46;90.00;99898.25;8500984;27;20047;-80
2022/10/29 06:48:57;;;;;;;20.55;6.93;;;;;;;14.45;90.07;99894.72;8498850;27;20039;-80
2022/10/29 06:53:00;;;;;;;19.27;6.55;;;;;;;14.44;90.51;99900.47;8500680;27;20560;-80
2022/10/29 06:57:01;;;;;;;20.67;6.60;;;;;;;14.46;90.57;99904.50;8497778;27;20059;-80
2022/10/29 07:01:20;;;;;;;;;;;;;;;14.50;90.72;99904.66;8495848;27;20042;-78
2022/10/29 07:05:23;;;;;;;19.75;6.30;;;;;;;14.56;90.63;99904.22;8493754;27;20014;-80
2022/10/29 07:09:23;;;;;;;17.60;6.45;;;;;;;14.64;90.71;99906.16;8496728;27;20043;-80
2022/10/29 07:13:43;;;;;;;22.23;6.82;;;;;;;14.77;90.42;99894.34;8468661;27;20138;-80
2022/10/29 07:18:05;;;;;;;28.63;7.22;;;;;;;14.89;90.30;99901.09;8505881;27;20395;-79
2022/10/29 07:22:06;;;;;;;19.85;7.03;;;;;;;14.98;90.17;99899.16;8512320;27;20061;-80
2022/10/29 07:26:06;;;;;;;14.95;6.55;;;;;;;15.06;90.07;99901.13;8492199;27;20047;-80
2022/10/29 07:30:08;;;;;;;17.50;6.50;;;;;;;15.11;89.99;99904.47;8456966;27;20047;-80
2022/10/29 07:34:08;;;;;;;23.10;6.40;;;;;;;15.19;90.03;99905.59;8460652;27;20043;-79
2022/10/29 07:38:11;;;;;;;18.08;6.47;;;;;;;15.19;89.92;99913.75;8511994;27;20133;-78
2022/10/29 07:42:11;;;;;;;19.55;7.18;;;;;;;15.19;90.04;99916.47;8498999;27;20054;-79
2022/10/29 07:46:15;;;;;;;19.05;7.50;;;;;;;15.14;89.85;99919.34;8498856;27;20496;-80
2022/10/29 07:50:16;;;;;;;19.55;6.47;;;;;;;15.08;89.73;99915.19;8491005;27;21124;-79
2022/10/29 07:54:17;;;;;;;16.58;6.32;;;;;;;15.02;89.64;99916.44;8500330;27;20130;-79
2022/10/29 07:58:18;;;;;;;20.20;7.13;;;;;;;14.95;89.54;99916.13;8508650;27;20064;-79
2022/10/29 08:02:19;;;;;;;20.25;7.72;;;;;;;14.89;89.75;99917.41;8499768;27;20035;-80
2022/10/29 08:06:20;;;;;;;20.00;7.43;;;;;;;14.86;89.60;99923.50;8433329;27;20071;-80
2022/10/29 08:10:22;;;;;;;23.27;8.13;;;;;;;14.95;89.04;99921.56;8511621;27;20046;-80
2022/10/29 08:14:41;;;;;;;24.50;7.57;;;;;;;14.98;89.08;99926.38;8508640;27;20057;-79
2022/10/29 08:18:42;;;;;;;31.48;7.95;;;;;;;15.04;89.10;99931.34;8497008;27;20047;-80
2022/10/29 08:22:44;;;;;;;23.23;8.07;;;;;;;15.09;88.89;99928.47;8460040;27;20054;-80
2022/10/29 08:26:45;;;;;;;23.25;7.93;;;;;;;15.12;88.83;99921.59;8503820;27;20047;-79
2022/10/29 08:30:48;;;;;;;18.75;7.70;;;;;;;15.27;88.72;99934.75;8503408;27;20071;-78
2022/10/29 08:34:50;;;;;;;19.58;8.32;;;;;;;15.46;88.25;99943.38;8495624;27;20054;-79
2022/10/29 08:38:50;;;;;;;15.95;7.28;;;;;;;15.63;87.79;99927.06;8497604;27;20051;-80
2022/10/29 08:43:00;;;;;;;20.50;7.75;;;;;;;15.72;87.36;99935.22;8474017;27;20065;-79
2022/10/29 08:47:19;;;;;;;16.52;7.25;;;;;;;15.74;87.81;99926.72;8468543;27;20538;-81
2022/10/29 08:51:23;;;;;;;22.20;8.25;;;;;;;15.72;87.74;99939.84;8499957;27;20742;-80
2022/10/29 08:55:43;;;;;;;21.65;7.38;;;;;;;15.66;87.93;99935.69;8496990;27;20483;-79
2022/10/29 09:00:14;;;;;;;22.27;7.72;;;;;;;15.73;88.31;99941.47;8495934;27;20922;-80
2022/10/29 09:04:37;;;;;;;22.35;6.80;;;;;;;15.98;87.65;99946.06;8496265;27;20420;-79
2022/10/29 09:08:52;;;;;;;25.63;7.07;;;;;;;16.22;86.57;99943.63;8447816;27;20138;-79
2022/10/29 09:13:11;;;;;;;19.75;7.18;;;;;;;16.43;85.84;99939.03;8477217;27;20567;-80
2022/10/29 09:17:21;;;;;;;30.80;9.95;;;;;;;16.64;85.59;99938.34;8498043;27;20039;-81
2022/10/29 09:21:45;;;;;;;21.80;7.07;;;;;;;16.83;84.48;99941.44;8504673;27;20061;-80
2022/10/29 09:25:59;;;;;;;22.40;6.70;;;;;;;16.91;83.72;99959.69;8493741;27;20047;-80
2022/10/29 09:30:28;;;;;;;18.70;6.63;;;;;;;17.00;83.03;99952.25;8496105;27;20772;-79
2022/10/29 09:34:50;;;;;;;23.02;6.22;;;;;;;17.13;82.75;99945.72;8328000;28;20045;-80
2022/10/29 09:39:12;;;;;;;30.00;9.93;;;;;;;17.25;83.13;99954.00;8334481;28;20075;-78
2022/10/29 09:43:23;;;;;;;28.90;9.27;;;;;;;17.41;82.22;99945.22;8328631;28;20505;-78
2022/10/29 09:47:38;;;;;;;21.27;7.72;;;;;;;17.62;81.66;99946.03;8346687;28;20053;-79
2022/10/29 09:52:06;;;;;;;22.08;7.10;;;;;;;17.82;80.45;99942.47;8339245;28;20065;-79
2022/10/29 09:56:07;;;;;;;21.08;6.40;;;;;;;17.96;79.05;99940.25;8337390;28;20106;-80
2022/10/29 10:00:29;;;;;;;29.92;10.50;;;;;;;18.11;78.56;99931.41;8345842;28;20560;-78
2022/10/29 10:04:35;;;;;;;33.38;9.48;;;;;;;18.09;79.30;99932.84;8355318;28;20075;-80
2022/10/29 10:09:05;;;;;;;23.38;6.15;;;;;;;18.14;78.42;99938.09;8358899;28;20522;-82
2022/10/29 10:13:12;;;;;;;20.95;6.28;;;;;;;18.12;78.11;99935.72;8322210;28;20087;-79
2022/10/29 10:17:14;;;;;;;21.20;6.20;;;;;;;18.11;77.93;99947.81;8321993;28;20080;-79
2022/10/29 10:21:29;;;;;;;26.60;6.68;;;;;;;18.16;77.77;99933.13;8308738;28;20426;-79
2022/10/29 10:25:38;;;;;;;20.80;5.80;;;;;;;18.23;77.50;99927.09;8322450;28;20062;-81
2022/10/29 10:29:39;;;;;;;12.85;4.63;;;;;;;18.31;77.39;99928.91;8322234;28;20076;-80
2022/10/29 10:33:58;;;;;;;18.65;5.53;;;;;;;18.48;76.99;99923.25;8321104;28;20053;-79
2022/10/29 10:38:06;;;;;;;12.05;4.97;;;;;;;18.61;75.88;99916.69;8304673;28;20045;-80
2022/10/29 10:42:26;;;;;;;16.38;5.43;;;;;;;18.70;75.83;99914.59;8300054;28;20661;-78
2022/10/29 10:46:33;;;;;;;15.98;5.35;;;;;;;18.77;74.61;99909.34;8328033;28;20060;-79
2022/10/29 10:50:35;;;;;;;18.63;5.53;;;;;;;18.89;75.67;99912.06;8507046;27;20067;-83
2022/10/29 10:54:43;;;;;;;14.63;5.30;;;;;;;18.95;75.30;99910.69;8464232;27;20502;-79
2022/10/29 10:59:06;;;;;;;17.65;5.70;;;;;;;19.05;74.71;99903.16;8523043;27;20043;-82
2022/10/29 11:03:42;;;;;;;19.38;4.80;;;;;;;19.09;75.02;99904.06;8510468;27;20061;-80
2022/10/29 11:08:11;;;;;;;19.23;5.50;;;;;;;19.25;74.71;99899.44;8526061;27;20053;-80
2022/10/29 11:12:43;;;;;;;15.95;5.32;;;;;;;19.34;73.94;99900.13;8519639;27;20547;-80
2022/10/29 11:16:48;;;;;;;14.07;4.75;;;;;;;19.45;73.73;99904.00;8529505;27;20076;-80
2022/10/29 11:21:03;;;;;;;14.57;4.90;;;;;;;19.37;73.25;99910.38;8516347;27;20043;-81
2022/10/29 11:25:14;;;;;;;11.80;4.80;;;;;;;19.23;72.84;99893.53;8418733;28;20171;-79
2022/10/29 11:29:38;;;;;;;13.13;4.30;;;;;;;19.31;73.68;99896.13;8426692;28;20146;-79
2022/10/29 11:34:10;;;;;;;21.48;5.57;;;;;;;19.42;72.80;99897.22;8390393;28;20116;-80
2022/10/29 11:38:35;;;;;;;13.30;3.92;;;;;;;19.45;71.95;99890.28;8259483;28;20046;-81
2022/10/29 11:42:38;;;;;;;14.10;3.78;;;;;;;19.50;71.55;99887.31;8235556;28;20054;-80
2022/10/29 11:47:10;;;;;;;13.43;3.90;;;;;;;19.61;71.80;99877.44;8263768;28;20077;-79
2022/10/29 11:51:33;;;;;;;9.45;3.58;;;;;;;19.64;71.03;99882.22;8210314;28;20479;-81
2022/10/29 11:56:22;;;;;;;17.67;3.72;;;;;;;19.75;70.40;99877.81;8251277;28;20137;-79
2022/10/29 12:00:44;;;;;;;13.43;3.53;;;;;;;19.83;70.10;99878.00;8259645;28;20039;-80
2022/10/29 12:05:00;;;;;;;15.77;3.83;;;;;;;19.89;69.46;99871.09;8227453;28;20125;-79
2022/10/29 12:09:34;;;;;;;14.57;4.20;;;;;;;19.97;68.54;99872.91;8227244;28;20480;-80
2022/10/29 12:14:35;;;;;;;16.65;3.40;;;;;;;19.90;68.38;99872.69;8234871;28;20061;-80
2022/10/29 12:19:27;;;;;;;13.10;3.63;;;;;;;19.87;69.19;99863.25;8161562;29;20091;-80
2022/10/29 12:23:52;;;;;;;12.85;3.70;;;;;;;19.98;69.11;99869.00;8160125;29;20054;-80
2022/10/29 12:28:00;;;;;;;11.30;4.05;;;;;;;19.95;68.90;99858.72;8192767;28;20109;-80
2022/10/29 12:32:47;;;;;;;11.10;3.47;;;;;;;19.83;68.79;99863.13;8254650;28;20051;-80
2022/10/29 12:36:54;;;;;;;9.60;3.28;;;;;;;19.68;69.46;99861.16;8193101;29;20047;-82
2022/10/29 12:41:01;;;;;;;21.42;3.90;;;;;;;19.62;69.96;99846.13;8219713;28;20109;-79
2022/10/29 12:45:35;;;;;;;15.23;3.60;;;;;;;19.64;69.96;99832.88;8256795;28;20140;-78
2022/10/29 12:50:02;;;;;;;12.00;3.10;;;;;;;19.79;69.77;99834.84;8241234;28;20105;-80
2022/10/29 12:54:03;;;;;;;9.88;3.30;;;;;;;19.91;69.26;99835.91;8293230;28;20044;-80
2022/10/29 12:58:41;;;;;;;10.45;3.40;;;;;;;19.96;68.80;99838.41;8387648;28;20139;-78
2022/10/29 13:02:45;;;;;;;15.48;3.78;;;;;;;19.93;69.01;99844.59;8376552;28;20056;-81
2022/10/29 13:06:51;;;;;;;11.45;3.75;;;;;;;19.97;69.66;99853.69;8384612;28;20262;-80
2022/10/29 13:10:53;;;;;;;12.95;3.25;;;;;;;19.87;69.91;99852.28;8360456;28;20132;-80
2022/10/29 13:15:08;;;;;;;11.80;3.47;;;;;;;19.71;69.74;99852.25;8484080;27;20480;-80
2022/10/29 13:19:49;;;;;;;12.82;3.25;;;;;;;19.53;70.38;99859.19;8517757;27;20045;-80
2022/10/29 13:24:15;;;;;;;7.75;3.22;;;;;;;19.46;71.08;99853.50;8515123;27;20084;-81
2022/10/29 13:28:34;;;;;;;12.07;3.47;;;;;;;19.44;71.46;99855.78;8508480;27;20053;-80
2022/10/29 13:32:38;;;;;;;14.30;3.65;;;;;;;19.44;71.59;99849.53;8508775;27;20050;-81
2022/10/29 13:36:39;;;;;;;8.77;3.33;;;;;;;19.41;72.12;99846.31;8464589;27;20054;-81
2022/10/29 13:41:01;;;;;;;14.82;3.42;;;;;;;19.40;72.46;99830.25;8465231;27;20136;-79
2022/10/29 13:45:03;;;;;;;13.98;4.10;;;;;;;19.43;72.43;99826.81;8393284;28;20064;-79
2022/10/29 13:49:11;;;;;;;11.13;4.07;;;;;;;19.42;72.49;99841.63;8394369;28;20056;-78
2022/10/29 13:53:12;;;;;;;14.90;4.13;;;;;;;19.38;72.61;99829.78;8377498;28;20060;-79
2022/10/29 13:57:28;;;;;;;10.55;3.95;;;;;;;19.37;72.96;99833.69;8394709;28;20052;-79
2022/10/29 14:01:32;;;;;;;8.48;3.70;;;;;;;19.28;73.23;99830.31;8394366;28;20044;-79
2022/10/29 14:05:33;;;;;;;11.43;4.00;;;;;;;19.20;73.92;99828.50;8359626;28;20045;-79
2022/10/29 14:09:53;;;;;;;;;;;;;;;19.08;74.46;99820.34;8391966;28;20082;-79
2022/10/29 14:14:00;;;;;;;16.13;3.80;;;;;;;18.98;75.22;99822.41;8377691;28;19957;-79
2022/10/29 14:18:26;;;;;;;15.00;4.07;;;;;;;18.87;76.14;99815.84;8375834;28;20123;-79
2022/10/29 14:22:35;;;;;;;15.35;3.95;;;;;;;18.74;76.95;99821.69;8488785;27;20058;-79
2022/10/29 14:26:38;;;;;;;16.98;4.22;;;;;;;18.63;77.54;99824.09;8501528;27;20075;-79
2022/10/29 14:30:39;;;;;;;13.25;4.40;;;;;;;18.53;78.25;99821.81;8513852;27;20133;-79
2022/10/29 14:34:58;;;;;;;;;;;;;;;18.41;78.83;99819.06;8506923;27;20057;-79
2022/10/29 14:39:25;;;;;;;12.32;4.72;;;;;;;18.32;79.74;99821.94;8510671;27;19947;-79
2022/10/29 14:43:26;;;;;;;;;;;;;;;18.22;80.19;99821.59;8471175;27;20047;-79
2022/10/29 14:47:30;;;;;;;13.38;4.88;;;;;;;18.12;80.88;99823.66;8509916;27;19929;-78
2022/10/29 14:51:38;;;;;;;16.92;4.80;;;;;;;18.01;81.72;99811.56;8505993;27;20573;-78
2022/10/29 14:55:44;;;;;;;9.15;4.53;;;;;;;17.90;82.58;99807.69;8485487;27;20057;-77
2022/10/29 14:59:50;;;;;;;14.55;4.65;;;;;;;17.84;83.09;99811.78;8495868;27;20404;-79
2022/10/29 15:04:20;;;;;;;20.95;7.70;;;;;;;17.74;83.24;99806.75;8502227;27;20122;-79
2022/10/29 15:08:28;;;;;;;15.82;5.78;;;;;;;17.59;84.01;99804.66;8507547;27;20047;-79
2022/10/29 15:12:34;;;;;;;20.00;6.50;;;;;;;17.45;84.70;99809.63;8517673;27;20483;-79
2022/10/29 15:16:53;;;;;;;23.88;7.07;;;;;;;17.30;85.28;99809.13;8506169;27;20196;-79
2022/10/29 15:20:55;;;;;;;21.33;6.50;;;;;;;17.14;85.96;99810.88;8518299;27;20932;-79
2022/10/29 15:24:57;;;;;;;16.30;6.30;;;;;;;16.98;86.57;99807.16;8508275;27;20134;-79
2022/10/29 15:28:59;;;;;;;27.60;8.93;;;;;;;16.80;87.33;99805.72;8457087;27;20065;-79
2022/10/29 15:33:01;;;;;;;53.08;16.48;;;;;;;16.64;87.82;99812.91;8526770;27;20043;-80
2022/10/29 15:37:18;;;;;;;86.97;25.70;;;;;;;16.51;88.27;99808.44;8497269;27;20106;-80
2022/10/29 15:41:44;;;;;;;68.88;23.08;;;;;;;16.36;88.30;99813.34;8518320;27;20071;-79
2022/10/29 15:45:56;;;;;;;48.50;16.77;;;;;;;16.23;88.62;99803.47;8522609;27;20146;-79
2022/10/29 15:50:21;;;;;;;69.15;22.65;;;;;;;16.10;89.02;99809.97;8511038;27;20050;-79
2022/10/29 15:54:22;;;;;;;52.80;17.00;;;;;;;16.04;89.28;99808.56;8485160;27;20043;-78
2022/10/29 15:58:23;;;;;;;88.55;28.27;;;;;;;16.00;89.02;99800.25;8498165;27;20051;-79
2022/10/29 16:02:25;;;;;;;42.65;15.23;;;;;;;15.89;89.48;99803.66;8499771;27;20043;-79
2022/10/29 16:06:26;;;;;;;76.72;22.40;;;;;;;15.77;89.73;99807.06;8470796;27;20052;-79
2022/10/29 16:10:27;;;;;;;64.65;19.63;;;;;;;15.69;89.49;99804.38;8512821;27;20092;-79
2022/10/29 16:14:28;;;;;;;60.17;16.17;;;;;;;15.63;89.70;99817.34;8515573;27;20146;-79
2022/10/29 16:18:29;;;;;;;46.67;14.07;;;;;;;15.54;89.70;99817.41;8510224;27;20043;-79
2022/10/29 16:22:30;;;;;;;44.15;14.43;;;;;;;15.50;89.84;99819.09;8476084;27;20100;-80
2022/10/29 16:26:52;;;;;;;36.25;13.98;;;;;;;15.49;89.92;99822.94;8521094;27;20183;-78
2022/10/29 16:30:54;;;;;;;46.25;14.00;;;;;;;15.47;89.84;99819.78;8489148;27;20042;-78
2022/10/29 16:34:55;;;;;;;46.75;16.38;;;;;;;15.45;89.88;99827.44;8509778;27;20066;-79
2022/10/29 16:38:56;;;;;;;49.75;16.83;;;;;;;15.45;90.12;99822.00;8512429;27;20887;-79
2022/10/29 16:42:57;;;;;;;27.90;11.27;;;;;;;15.47;90.31;99806.16;8486064;27;20100;-79
2022/10/29 16:46:59;;;;;;;34.08;13.00;;;;;;;15.54;90.96;99802.97;8518165;27;20134;-79
2022/10/29 16:51:00;;;;;;;31.38;11.45;;;;;;;15.64;90.76;99802.63;8509629;27;20051;-79
2022/10/29 16:55:01;;;;;;;22.70;11.43;;;;;;;15.67;90.96;99801.97;8501760;27;20039;-79
2022/10/29 16:59:02;;;;;;;38.30;12.45;;;;;;;15.72;91.12;99792.81;8515203;27;20384;-80
2022/10/29 17:03:05;;;;;;;38.00;13.00;;;;;;;15.77;91.31;99800.81;8499682;27;20107;-79
2022/10/29 17:07:06;;;;;;;29.42;12.75;;;;;;;15.81;91.31;99799.06;8513477;27;20119;-79
2022/10/29 17:11:08;;;;;;;29.45;12.18;;;;;;;15.79;91.81;99798.56;8515576;27;20046;-79
2022/10/29 17:15:09;;;;;;;36.65;13.48;;;;;;;15.78;91.82;99802.41;8521558;27;20046;-78
2022/10/29 17:19:13;;;;;;;30.38;13.57;;;;;;;15.80;92.07;99805.63;8506529;27;20043;-80
2022/10/29 17:23:33;;;;;;;31.15;12.63;;;;;;;15.81;92.48;99797.09;8512141;27;20054;-80
2022/10/29 17:27:39;;;;;;;26.80;12.23;;;;;;;15.82;92.44;99792.44;8504251;27;20043;-79
2022/10/29 17:31:58;;;;;;;28.25;11.70;;;;;;;15.80;92.28;99802.91;8497124;27;20091;-80
2022/10/29 17:36:17;;;;;;;31.63;11.55;;;;;;;15.71;92.25;99788.50;8494997;27;20049;-80
2022/10/29 17:40:19;;;;;;;45.58;13.57;;;;;;;15.62;92.58;99788.53;8505777;27;20054;-80
2022/10/29 17:44:20;;;;;;;39.72;15.65;;;;;;;15.56;93.14;99787.91;8500346;27;20047;-80
2022/10/29 17:48:21;;;;;;;55.58;20.33;;;;;;;15.54;93.08;99798.34;8500554;27;20047;-79
2022/10/29 17:52:22;;;;;;;51.55;17.73;;;;;;;15.51;93.34;99796.25;8501065;27;20047;-79
2022/10/29 17:56:23;;;;;;;35.88;13.15;;;;;;;15.48;93.61;99799.59;8503650;27;20513;-79
2022/10/29 18:00:25;;;;;;;33.50;13.48;;;;;;;15.47;93.53;99808.88;8459303;27;20044;-79
2022/10/29 18:04:26;;;;;;;37.95;14.43;;;;;;;15.49;93.79;99806.63;8499766;27;20050;-79
2022/10/29 18:08:45;;;;;;;28.55;14.50;;;;;;;15.53;93.65;99802.19;8479643;27;20140;-79
2022/10/29 18:13:05;;;;;;;36.47;14.98;;;;;;;15.55;93.64;99805.34;8505627;27;20034;-79
2022/10/29 18:17:25;;;;;;;43.03;16.42;;;;;;;15.59;93.28;99811.78;8494691;27;20096;-79
2022/10/29 18:21:26;;;;;;;34.63;15.88;;;;;;;15.59;93.58;99817.22;8494220;27;20081;-79
2022/10/29 18:25:27;;;;;;;28.90;14.95;;;;;;;15.61;93.86;99814.94;8495041;27;20070;-81
2022/10/29 18:29:28;;;;;;;31.10;14.63;;;;;;;15.62;93.88;99816.56;8495273;27;20058;-80
2022/10/29 18:33:29;;;;;;;28.88;13.40;;;;;;;15.64;94.18;99824.41;8494359;27;20395;-79
2022/10/29 18:37:36;;;;;;;29.52;11.93;;;;;;;15.66;94.60;99821.34;8482776;27;20134;-80
2022/10/29 18:41:38;;;;;;;34.92;13.30;;;;;;;15.67;94.89;99822.94;8501820;27;20383;-79
2022/10/29 18:45:40;;;;;;;35.72;13.20;;;;;;;15.65;94.82;99819.75;8503109;27;20053;-79
2022/10/29 18:49:42;;;;;;;25.55;11.50;;;;;;;15.62;94.83;99816.56;8503396;27;20491;-79
2022/10/29 18:53:45;;;;;;;27.38;11.10;;;;;;;15.65;95.27;99819.75;8461860;27;20502;-79
2022/10/29 18:57:46;;;;;;;28.98;12.25;;;;;;;15.61;95.27;99825.84;8507582;27;20031;-79
2022/10/29 19:01:48;;;;;;;25.73;12.05;;;;;;;15.59;95.40;99817.22;8479352;27;20077;-80
2022/10/29 19:05:49;;;;;;;36.30;11.85;;;;;;;15.60;95.46;99824.22;8511445;27;20038;-79
2022/10/29 19:09:50;;;;;;;28.77;13.15;;;;;;;15.58;95.69;99815.63;8522505;27;20043;-79
2022/10/29 19:13:57;;;;;;;33.03;12.82;;;;;;;15.55;95.96;99816.25;8515888;27;20043;-79
2022/10/29 19:18:16;;;;;;;30.88;14.00;;;;;;;15.57;96.43;99808.56;8471023;27;20050;-79